Time;durP1;ratioP1;P1;durP2;ratioP2;P2;SDS_P1;SDS_P2;PMS_P1;PMS_P2;Temp;Humidity;BMP_temperature;BMP_pressure;BME280_temperature;BME280_humidity;BME280_pressure;Samples;Min_cycle;Max_cycle;Signal;HPM_P1;HPM_P2
2022/03/17 00:08:09;;;;;;;6.07;5.23;;;;;;;-4.92;64.62;101934.38;31497383;28;20048;-78
2022/03/17 00:23:12;;;;;;;9.63;5.57;;;;;;;-5.08;65.23;101938.94;31492314;28;20052;-76
2022/03/17 00:38:16;;;;;;;6.47;3.93;;;;;;;-5.21;65.79;101935.00;31484916;28;20393;-78
2022/03/17 00:53:19;;;;;;;11.83;5.53;;;;;;;-5.33;67.92;101947.72;31488451;28;20052;-78
2022/03/17 01:08:21;;;;;;;10.10;5.10;;;;;;;-5.26;67.90;101942.94;31482333;28;20052;-77
2022/03/17 01:23:23;;;;;;;6.43;4.87;;;;;;;-5.34;68.65;101927.59;31482269;28;20565;-77
2022/03/17 01:38:26;;;;;;;17.37;6.17;;;;;;;-5.31;69.48;101929.72;31482635;28;20048;-77
2022/03/17 01:53:28;;;;;;;10.73;5.57;;;;;;;-5.46;69.83;101931.59;31485678;28;20056;-77
2022/03/17 02:08:31;;;;;;;7.37;4.60;;;;;;;-5.47;71.12;101933.44;31471086;28;20881;-76
2022/03/17 02:39:00;;;;;;;6.20;4.43;;;;;;;-5.80;73.32;101933.97;31537283;28;20123;-77
2022/03/17 02:54:02;;;;;;;12.37;5.73;;;;;;;-6.00;72.33;101942.72;31536771;28;20044;-77
2022/03/17 03:09:04;;;;;;;13.10;6.17;;;;;;;-5.98;72.68;101938.75;31509585;28;20056;-76
2022/03/17 03:24:06;;;;;;;8.10;5.50;;;;;;;-6.00;73.20;101948.00;31505242;28;20549;-77
2022/03/17 03:39:08;;;;;;;8.13;4.90;;;;;;;-6.08;73.26;101936.09;31505985;28;20044;-78
2022/03/17 03:54:15;;;;;;;10.50;5.70;;;;;;;-6.03;73.87;101959.91;31513165;28;20048;-77
2022/03/17 04:09:20;;;;;;;12.53;7.47;;;;;;;-6.13;73.73;101973.06;31506336;28;20076;-77
2022/03/17 04:24:22;;;;;;;11.50;7.03;;;;;;;-6.12;73.23;101981.81;31509404;28;20118;-76
2022/03/17 04:39:26;;;;;;;9.33;5.53;;;;;;;-5.82;73.13;101979.19;31500704;28;20052;-75
2022/03/17 04:54:28;;;;;;;9.00;5.97;;;;;;;-5.11;70.19;101986.34;31512911;28;20064;-78
2022/03/17 05:09:31;;;;;;;11.77;5.90;;;;;;;-5.06;69.55;101999.59;31485148;28;20129;-79
2022/03/17 05:24:33;;;;;;;12.53;6.60;;;;;;;-4.57;68.11;102003.19;31482857;28;20067;-76
2022/03/17 05:39:35;;;;;;;13.50;7.33;;;;;;;-3.70;63.72;102016.00;31490754;28;20040;-77
2022/03/17 05:54:37;;;;;;;8.57;5.20;;;;;;;-3.24;58.07;102009.28;31492247;28;20454;-76
2022/03/17 06:09:40;;;;;;;7.70;5.10;;;;;;;-2.14;55.66;102004.91;31483443;28;20048;-78
2022/03/17 06:24:42;;;;;;;9.57;5.10;;;;;;;-1.21;52.38;101995.25;31474557;28;20109;-79
2022/03/17 06:39:44;;;;;;;11.63;4.20;;;;;;;-0.62;49.53;101981.09;31486712;28;20052;-77
2022/03/17 06:54:46;;;;;;;6.37;3.90;;;;;;;-0.15;48.42;101995.88;31489245;28;20098;-77
2022/03/17 07:09:49;;;;;;;7.93;4.97;;;;;;;0.70;45.86;101999.53;31482592;28;20106;-74
2022/03/17 07:24:51;;;;;;;9.17;4.27;;;;;;;0.83;45.57;101992.53;31490881;28;20052;-78
2022/03/17 07:39:53;;;;;;;9.83;5.63;;;;;;;1.66;43.53;101983.53;31496340;28;20068;-76
2022/03/17 07:54:55;;;;;;;8.30;4.10;;;;;;;2.08;42.64;101975.88;31501125;28;20052;-77
2022/03/17 08:09:58;;;;;;;7.70;4.97;;;;;;;2.77;41.46;101958.94;31486664;28;20118;-77
2022/03/17 08:25:03;;;;;;;15.97;5.33;;;;;;;2.60;40.57;101952.47;31466132;28;20492;-75
2022/03/17 08:40:06;;;;;;;7.67;4.70;;;;;;;3.27;39.35;101945.63;31477013;28;20473;-75
2022/03/17 08:55:10;;;;;;;7.17;3.70;;;;;;;3.44;38.44;101937.47;31487267;28;20075;-74
2022/03/17 09:10:13;;;;;;;18.13;4.93;;;;;;;4.16;38.06;101925.56;31484710;28;20455;-83
2022/03/17 09:25:18;;;;;;;9.07;4.47;;;;;;;4.33;36.95;101919.22;31482509;28;20113;-81
2022/03/17 09:40:20;;;;;;;7.20;3.67;;;;;;;4.01;37.26;101928.84;31481052;28;20057;-76
2022/03/17 09:55:23;;;;;;;8.27;3.90;;;;;;;4.23;35.73;101925.81;31473257;28;20110;-81
2022/03/17 10:10:38;;;;;;;4.97;3.43;;;;;;;4.48;35.13;101904.38;31467816;28;20106;-79
2022/03/17 10:25:40;;;;;;;6.57;4.17;;;;;;;2.94;38.31;101914.03;31460142;28;20048;-80
2022/03/17 10:40:58;;;;;;;3.87;2.53;;;;;;;2.52;40.32;101906.94;31486017;28;20044;-79
2022/03/17 10:56:12;;;;;;;8.30;3.43;;;;;;;3.30;38.33;101905.50;31493867;28;20105;-80
2022/03/17 11:11:15;;;;;;;6.90;3.77;;;;;;;2.69;40.37;101901.53;31490816;28;20052;-79
2022/03/17 11:26:29;;;;;;;5.27;3.07;;;;;;;3.07;39.68;101885.44;31500420;28;20487;-78
2022/03/17 11:41:40;;;;;;;10.40;3.60;;;;;;;3.90;37.53;101900.81;31497193;28;20044;-79
2022/03/17 11:56:43;;;;;;;5.57;3.37;;;;;;;2.71;39.79;101899.31;31494204;28;20447;-80
2022/03/17 12:11:49;;;;;;;5.30;3.03;;;;;;;2.12;41.94;101904.50;31497590;28;20054;-80
2022/03/17 12:27:12;;;;;;;13.47;5.17;;;;;;;1.04;44.77;101924.03;31496307;28;20135;-80
2022/03/17 12:42:17;;;;;;;10.90;4.27;;;;;;;0.77;45.60;101914.31;31452908;28;20127;-79
2022/03/17 12:57:20;;;;;;;6.07;4.23;;;;;;;0.55;45.66;101925.84;31495961;28;20099;-76
2022/03/17 13:27:59;;;;;;;11.30;4.03;;;;;;;0.02;47.24;101939.16;31493852;28;20117;-78
2022/03/17 13:43:06;;;;;;;8.73;4.80;;;;;;;-0.21;46.57;101942.88;31491553;28;20040;-84
2022/03/17 13:58:36;;;;;;;11.87;4.23;;;;;;;-0.70;53.76;101963.09;31486307;28;20098;-75
2022/03/17 14:13:45;;;;;;;7.90;4.47;;;;;;;-0.98;52.22;101965.00;31485795;28;20729;-76
2022/03/17 14:28:47;;;;;;;8.40;4.40;;;;;;;-1.41;52.21;101975.06;31523237;28;20052;-81
2022/03/17 14:43:54;;;;;;;13.33;4.50;;;;;;;-1.60;55.07;101998.28;31493615;28;20131;-82
2022/03/17 14:58:57;;;;;;;9.80;5.20;;;;;;;-1.58;52.21;102012.88;31503222;28;20504;-79
2022/03/17 15:13:59;;;;;;;7.23;3.97;;;;;;;-1.96;52.36;102048.59;31511773;28;20059;-80
2022/03/17 15:44:21;;;;;;;6.63;4.37;;;;;;;-2.50;54.84;102087.00;31495525;28;20063;-80
2022/03/17 15:59:24;;;;;;;7.03;3.83;;;;;;;-2.58;55.33;102107.00;31482283;28;20072;-75
2022/03/17 16:14:29;;;;;;;6.70;3.97;;;;;;;-2.53;56.03;102103.50;31497075;28;20056;-81
2022/03/17 16:29:31;;;;;;;6.47;4.23;;;;;;;-2.83;58.10;102115.22;31472649;28;20044;-81
2022/03/17 16:44:33;;;;;;;8.03;4.53;;;;;;;-3.16;58.22;102154.00;31489597;28;20489;-81
2022/03/17 16:59:35;;;;;;;10.37;4.93;;;;;;;-3.13;57.63;102156.91;31477228;28;20056;-78
2022/03/17 17:14:41;;;;;;;7.43;3.70;;;;;;;-3.11;58.43;102178.69;31479352;28;20048;-76
2022/03/17 17:45:05;;;;;;;12.63;6.53;;;;;;;-3.46;60.35;102213.41;31479430;28;20056;-77
2022/03/17 18:00:09;;;;;;;9.60;5.30;;;;;;;-3.52;62.94;102211.81;31485114;28;20049;-75
2022/03/17 18:15:12;;;;;;;8.03;4.20;;;;;;;-3.77;64.44;102239.25;31475927;28;20401;-78
2022/03/17 18:30:15;;;;;;;6.70;4.63;;;;;;;-3.98;70.34;102254.44;31486610;28;20048;-78
2022/03/17 18:45:18;;;;;;;7.33;3.53;;;;;;;-4.32;80.57;102264.81;31473020;28;20144;-78
2022/03/17 19:00:22;;;;;;;7.00;4.63;;;;;;;-4.49;75.21;102285.50;31495336;28;20459;-79
2022/03/17 19:15:30;;;;;;;7.73;5.47;;;;;;;-4.59;73.74;102302.16;31509748;28;20571;-76
2022/03/17 19:30:47;;;;;;;11.33;5.77;;;;;;;-4.72;77.23;102318.56;31509784;28;20057;-78
2022/03/17 19:45:50;;;;;;;11.33;6.23;;;;;;;-4.92;80.29;102308.72;31489164;28;20580;-77
2022/03/17 20:00:55;;;;;;;13.50;6.63;;;;;;;-4.88;79.82;102328.34;31504158;28;20052;-78
2022/03/17 20:16:24;;;;;;;11.73;5.80;;;;;;;-4.97;80.78;102332.56;31496018;28;20056;-76
2022/03/17 20:31:26;;;;;;;6.83;4.33;;;;;;;-5.12;80.90;102339.63;31475100;28;20045;-79
2022/03/17 20:46:28;;;;;;;11.23;4.67;;;;;;;-5.38;78.63;102341.34;31492612;28;20064;-79
2022/03/17 21:01:30;;;;;;;5.87;4.70;;;;;;;-5.49;79.49;102340.50;31503121;28;20784;-76
2022/03/17 21:16:33;;;;;;;6.63;4.70;;;;;;;-5.60;81.17;102355.53;31473451;28;20079;-75
2022/03/17 21:31:39;;;;;;;11.03;5.57;;;;;;;-5.55;80.24;102352.91;31484635;28;20045;-75
2022/03/17 21:46:41;;;;;;;5.88;4.88;;;;;;;-5.85;81.13;102364.06;31500984;28;20075;-76
2022/03/17 22:01:44;;;;;;;11.00;5.03;;;;;;;-6.01;81.88;102380.91;31474936;28;20056;-75
2022/03/17 22:16:47;;;;;;;5.77;4.50;;;;;;;-6.11;81.55;102380.81;31483285;28;20048;-75
2022/03/17 22:31:50;;;;;;;11.23;5.63;;;;;;;-6.02;81.09;102411.03;31477367;28;20407;-75
2022/03/17 22:46:52;;;;;;;4.53;4.13;;;;;;;-5.99;80.55;102399.97;31489102;28;20125;-75
2022/03/17 23:01:54;;;;;;;9.53;6.10;;;;;;;-6.22;80.39;102413.50;31507661;28;20048;-75
2022/03/17 23:16:57;;;;;;;10.90;6.43;;;;;;;-6.19;80.78;102423.59;31509610;28;21106;-75
2022/03/17 23:31:59;;;;;;;7.60;4.07;;;;;;;-6.23;80.74;102425.13;31499533;28;20110;-76
2022/03/17 23:47:03;;;;;;;7.60;4.40;;;;;;;-6.54;81.13;102419.50;31491656;28;20049;-75
